Kezdőlap
METAR-TAF:

METAR-TAF

Repülőterek :

Gilze en Rijen, Hollandia

földrajzi szélesség: 51-34N, földrajzi hosszúság: 004-56E, magasság: 15 m

Jelenlegi meteorológiai megfigyelések

A jelentés 16 perccel ezelõtt készült, 15:26 UTC
Nyugat-délnyugati szél 10 kt, dél-délnyugati és nyugati között változik
Hőmérséklet 7°C
Páratartalom 87%
Légköri nyomás 1002 hPa
Látótávolság 10 km, vagy több
Kevés felhő 1500 lábon, Cumulonimbus.
Szórványos felhőzet 2200 lábon
Szakadozott felhőzet 3000 lábon
enyhe esõ, szitálás

METAR: EHGR 151526Z AUTO 24010KT 200V280 9999 -RADZ FEW015CB SCT022 BKN030 07/05 Q1002 WHT

Idő: 16:42 (15:42 UTC)


TAF: hiányzik

Meteorológiai megfigyelések és előrejelzések több, mint 4000 repülőtéren (METAR és TAF jelentéseket).

A térképen piros és sárga pontok jelzik az elérhető meteorológiai állomásokat.

Mozgassa az egeret a pont fölött, hogy megjelenjen az állomás neve.

Azután kattintson az időjárási megfigyelések és előrejelzések megtekintéséhez.

A térkép megváltoztatása: kattintson a fekete keresztel jelölt zöld gombra ráközelítéshez, a vonallal jelölt zöld gombra távolításhoz, vagy a zöld nyilakra a szomszédos térképek eléréséhez.


METAR-TAF: